createdAt,value
2023-10-21T00:02:24.882Z,47.27
2023-10-21T00:04:53.134Z,47.20
2023-10-21T00:07:21.330Z,47.15
2023-10-21T00:09:49.475Z,47.04
2023-10-21T00:12:17.702Z,47.17
2023-10-21T00:14:46.080Z,47.35
2023-10-21T00:17:14.230Z,47.11
2023-10-21T00:19:42.538Z,47.05
2023-10-21T00:22:11.476Z,47.12
2023-10-21T00:24:39.820Z,47.44
2023-10-21T00:27:08.343Z,47.98
2023-10-21T00:29:36.858Z,48.10
2023-10-21T00:32:06.054Z,48.29
2023-10-21T00:34:39.473Z,48.54
2023-10-21T00:37:09.291Z,48.57
2023-10-21T00:39:38.533Z,48.73
2023-10-21T00:42:07.034Z,48.95
2023-10-21T00:44:35.389Z,49.11
2023-10-21T00:47:04.181Z,48.97
2023-10-21T00:49:33.666Z,49.22
2023-10-21T00:52:04.694Z,49.25
2023-10-21T00:54:33.448Z,49.51
2023-10-21T00:57:02.072Z,49.42
2023-10-21T00:59:30.333Z,49.67
2023-10-21T01:01:58.737Z,49.98
2023-10-21T01:04:27.580Z,49.90
2023-10-21T01:06:56.890Z,49.88
2023-10-21T01:09:27.753Z,49.51
2023-10-21T01:11:56.424Z,49.55
2023-10-21T01:14:25.447Z,49.67
2023-10-21T01:16:53.811Z,49.30
2023-10-21T01:19:23.359Z,49.06
2023-10-21T01:21:51.593Z,48.98
2023-10-21T01:24:19.887Z,48.92
2023-10-21T01:26:48.247Z,49.08
2023-10-21T01:29:16.655Z,49.17
2023-10-21T01:31:45.370Z,49.40
2023-10-21T01:34:14.328Z,49.55
2023-10-21T01:36:42.930Z,49.70
2023-10-21T01:39:11.892Z,49.87
2023-10-21T01:41:40.444Z,49.85
2023-10-21T01:44:11.158Z,49.56
2023-10-21T01:46:42.251Z,49.53
2023-10-21T01:49:13.574Z,49.82
2023-10-21T01:51:45.291Z,49.73
2023-10-21T01:54:17.303Z,49.45
2023-10-21T01:56:48.751Z,49.43
2023-10-21T01:59:20.240Z,49.29
2023-10-21T02:01:51.268Z,48.86
2023-10-21T02:04:22.160Z,48.74
2023-10-21T02:06:52.318Z,48.81
2023-10-21T02:09:24.270Z,48.59
2023-10-21T02:11:59.293Z,48.48
2023-10-21T02:14:31.246Z,48.16
2023-10-21T02:17:02.773Z,47.76
2023-10-21T02:19:34.471Z,47.12
2023-10-21T02:22:07.316Z,47.69
2023-10-21T02:24:39.176Z,48.27
2023-10-21T02:27:14.336Z,48.79
2023-10-21T02:29:47.239Z,49.31
2023-10-21T02:32:19.208Z,49.45
2023-10-21T02:34:50.593Z,49.75
2023-10-21T02:37:21.704Z,50.19
2023-10-21T02:39:52.283Z,50.51
2023-10-21T02:42:24.279Z,50.61
2023-10-21T02:52:30.261Z,51.99
2023-10-21T02:54:58.531Z,52.18
2023-10-21T02:57:27.051Z,52.49
2023-10-21T02:59:56.043Z,52.36
2023-10-21T03:02:24.233Z,52.42
2023-10-21T03:04:52.982Z,52.57
2023-10-21T03:07:21.257Z,52.51
2023-10-21T03:09:49.843Z,52.73
2023-10-21T03:12:18.189Z,52.61
2023-10-21T03:14:46.999Z,53.34
2023-10-21T03:17:15.653Z,53.87
2023-10-21T03:19:44.490Z,53.91
2023-10-21T03:22:12.777Z,53.68
2023-10-21T03:24:41.251Z,54.23
2023-10-21T03:27:09.820Z,54.63
2023-10-21T03:29:38.084Z,55.04
2023-10-21T03:32:07.773Z,55.18
2023-10-21T03:34:36.302Z,55.04
2023-10-21T03:37:05.502Z,54.78
2023-10-21T03:39:34.077Z,54.86
2023-10-21T03:42:02.420Z,54.86
2023-10-21T03:44:30.668Z,54.92
2023-10-21T03:46:59.041Z,55.36
2023-10-21T03:49:27.537Z,55.52
2023-10-21T03:51:56.290Z,55.48
2023-10-21T03:54:24.591Z,55.47
2023-10-21T03:56:53.086Z,55.51
2023-10-21T03:59:21.354Z,55.59
2023-10-21T04:01:49.844Z,55.40
2023-10-21T04:04:18.453Z,55.58
2023-10-21T04:06:47.046Z,55.40
2023-10-21T04:09:15.799Z,55.17
2023-10-21T04:11:44.158Z,55.03
2023-10-21T04:14:12.330Z,55.44
2023-10-21T04:16:45.853Z,55.70
2023-10-21T04:19:14.721Z,56.09
2023-10-21T04:21:43.043Z,56.17
2023-10-21T04:24:11.104Z,56.28
2023-10-21T04:26:39.659Z,55.98
2023-10-21T04:29:08.180Z,55.74
2023-10-21T04:31:36.940Z,55.50
2023-10-21T04:34:05.513Z,55.76
2023-10-21T04:36:33.677Z,55.61
2023-10-21T04:39:01.854Z,55.39
2023-10-21T04:41:30.576Z,55.28
2023-10-21T04:43:58.929Z,55.66
2023-10-21T04:46:27.290Z,56.19
2023-10-21T04:48:56.096Z,56.04
2023-10-21T04:51:25.066Z,55.84
2023-10-21T04:53:53.345Z,55.94
2023-10-21T04:56:22.076Z,56.11
2023-10-21T04:58:50.346Z,56.22
2023-10-21T05:01:18.789Z,56.32
2023-10-21T05:03:47.325Z,56.27
2023-10-21T05:06:15.745Z,55.95
2023-10-21T05:08:44.282Z,55.86
2023-10-21T05:11:12.620Z,56.16
2023-10-21T05:13:40.989Z,56.25
2023-10-21T05:16:09.427Z,56.20
2023-10-21T05:18:37.517Z,56.75
2023-10-21T05:21:09.012Z,57.18
2023-10-21T05:23:37.339Z,57.31
2023-10-21T05:26:05.715Z,57.26
2023-10-21T05:28:34.135Z,57.42
2023-10-21T05:31:03.446Z,57.29
2023-10-21T05:33:31.697Z,57.26
2023-10-21T05:36:01.622Z,57.31
2023-10-21T05:38:30.004Z,57.55
2023-10-21T05:41:00.925Z,57.44
2023-10-21T05:43:29.286Z,57.07
2023-10-21T05:45:58.022Z,57.34
2023-10-21T05:48:26.506Z,57.50
2023-10-21T05:50:55.090Z,57.46
2023-10-21T05:53:23.530Z,57.64
2023-10-21T05:55:51.804Z,57.63
2023-10-21T05:58:20.705Z,58.16
2023-10-21T06:00:48.950Z,57.67
2023-10-21T06:03:17.357Z,57.93
2023-10-21T06:05:45.941Z,58.10
2023-10-21T06:08:14.355Z,58.47
2023-10-21T06:10:45.668Z,58.65
2023-10-21T06:13:14.044Z,58.57
2023-10-21T06:15:42.223Z,58.16
2023-10-21T06:18:10.567Z,58.42
2023-10-21T06:20:38.901Z,58.61
2023-10-21T06:23:07.206Z,58.98
2023-10-21T06:25:35.656Z,58.31
2023-10-21T06:28:04.643Z,58.64
2023-10-21T06:30:33.063Z,58.83
2023-10-21T06:33:01.506Z,58.87
2023-10-21T06:35:30.512Z,59.35
2023-10-21T06:37:58.786Z,59.59
2023-10-21T06:40:41.118Z,59.51
2023-10-21T06:43:15.216Z,58.46
2023-10-21T06:45:46.724Z,58.11
2023-10-21T06:48:15.231Z,57.78
2023-10-21T06:50:43.757Z,57.47
2023-10-21T06:53:12.213Z,56.43
2023-10-21T06:55:43.089Z,56.34
2023-10-21T06:58:12.885Z,55.91
2023-10-21T07:00:41.265Z,55.30
2023-10-21T07:03:09.944Z,55.05
2023-10-21T07:05:38.300Z,55.15
2023-10-21T07:08:07.396Z,54.26
2023-10-21T07:10:35.804Z,53.69
2023-10-21T07:13:04.789Z,53.54
2023-10-21T07:15:33.107Z,53.97
2023-10-21T07:18:02.026Z,54.79
2023-10-21T07:20:30.749Z,54.46
2023-10-21T07:22:59.244Z,54.18
2023-10-21T07:25:27.918Z,55.84
2023-10-21T07:27:56.080Z,56.43
2023-10-21T07:30:25.959Z,55.44
2023-10-21T07:32:54.774Z,54.64
2023-10-21T07:35:23.583Z,55.19
2023-10-21T07:37:52.202Z,53.02
2023-10-21T07:40:21.370Z,51.14
2023-10-21T07:42:50.944Z,50.29
2023-10-21T07:45:19.170Z,51.09
2023-10-21T07:47:47.591Z,51.40
2023-10-21T07:50:16.102Z,51.01
2023-10-21T07:52:44.667Z,51.39
2023-10-21T07:55:15.865Z,52.78
2023-10-21T07:57:44.020Z,53.58
2023-10-21T08:00:15.186Z,52.73
2023-10-21T08:02:44.731Z,53.47
2023-10-21T08:05:12.929Z,53.51
2023-10-21T08:07:41.226Z,53.03
2023-10-21T08:10:11.248Z,53.04
2023-10-21T08:12:40.508Z,51.81
2023-10-21T08:15:09.905Z,52.49
2023-10-21T08:17:38.703Z,52.77
2023-10-21T08:20:08.892Z,53.09
2023-10-21T08:22:37.024Z,52.15
2023-10-21T08:25:07.887Z,50.89
2023-10-21T08:27:39.876Z,50.07
2023-10-21T08:30:12.027Z,50.38
2023-10-21T08:32:40.752Z,50.51
2023-10-21T08:35:09.165Z,50.10
2023-10-21T08:37:38.815Z,50.45
2023-10-21T08:40:11.459Z,50.71
2023-10-21T08:45:12.569Z,50.50
2023-10-21T08:47:44.135Z,51.29
2023-10-21T08:50:14.445Z,50.32
2023-10-21T08:52:43.973Z,49.33
2023-10-21T08:55:12.538Z,49.07
2023-10-21T08:57:40.676Z,50.57
2023-10-21T09:00:11.770Z,49.44
2023-10-21T09:02:40.381Z,51.31
2023-10-21T09:05:13.109Z,50.41
2023-10-21T09:07:46.887Z,48.62
2023-10-21T09:10:16.811Z,46.47
2023-10-21T09:12:44.945Z,47.40
2023-10-21T09:15:13.813Z,47.98
2023-10-21T09:17:53.824Z,46.75
2023-10-21T09:20:23.448Z,46.46
2023-10-21T09:22:53.507Z,47.39
2023-10-21T09:25:23.709Z,46.25
2023-10-21T09:27:57.180Z,46.52
2023-10-21T09:30:26.783Z,46.97
2023-10-21T09:33:04.185Z,46.19
2023-10-21T09:35:33.471Z,46.20
2023-10-21T09:38:19.937Z,46.43
2023-10-21T09:40:49.946Z,46.81
2023-10-21T09:43:19.189Z,47.53
2023-10-21T09:45:51.274Z,47.59
2023-10-21T09:48:19.883Z,47.30
2023-10-21T09:50:52.479Z,48.51
2023-10-21T09:53:26.541Z,48.77
2023-10-21T09:55:57.225Z,48.01
2023-10-21T09:58:28.277Z,49.07
2023-10-21T10:00:57.520Z,48.80
2023-10-21T10:03:28.053Z,48.36
2023-10-21T10:05:56.723Z,48.80
2023-10-21T10:08:25.368Z,48.18
2023-10-21T10:10:56.776Z,48.08
2023-10-21T10:13:26.480Z,47.57
2023-10-21T10:15:56.595Z,47.41
2023-10-21T10:18:25.740Z,46.17
2023-10-21T10:20:54.652Z,46.30
2023-10-21T10:23:26.301Z,46.81
2023-10-21T10:25:58.705Z,46.11
2023-10-21T10:28:27.948Z,45.21
2023-10-21T10:30:58.695Z,45.63
2023-10-21T10:33:32.687Z,45.31
2023-10-21T10:36:14.559Z,45.18
2023-10-21T10:38:46.930Z,45.60
2023-10-21T10:41:20.523Z,45.59
2023-10-21T10:43:53.326Z,44.93
2023-10-21T10:46:25.302Z,44.92
2023-10-21T10:48:54.039Z,45.16
2023-10-21T10:51:32.353Z,45.54
2023-10-21T10:54:02.141Z,45.05
2023-10-21T10:56:51.668Z,45.79
2023-10-21T10:59:20.339Z,46.06
2023-10-21T11:01:59.093Z,46.29
2023-10-21T11:04:27.560Z,46.97
2023-10-21T11:06:58.118Z,47.35
2023-10-21T11:09:32.431Z,47.55
2023-10-21T11:12:09.344Z,47.28
2023-10-21T11:14:39.859Z,46.84
2023-10-21T11:17:08.387Z,47.73
2023-10-21T11:19:37.134Z,46.60
2023-10-21T11:22:09.841Z,47.67
2023-10-21T11:24:39.043Z,48.24
2023-10-21T11:27:07.878Z,47.96
2023-10-21T11:29:38.980Z,47.81
2023-10-21T11:32:12.605Z,47.90
2023-10-21T11:34:46.070Z,48.03
2023-10-21T11:37:14.578Z,47.48
2023-10-21T11:39:43.113Z,47.45
2023-10-21T11:42:21.648Z,46.91
2023-10-21T11:45:01.873Z,46.42
2023-10-21T11:47:31.976Z,45.08
2023-10-21T11:50:00.538Z,44.47
2023-10-21T11:52:29.014Z,45.99
2023-10-21T11:55:11.239Z,46.71
2023-10-21T11:57:59.490Z,45.92
2023-10-21T12:00:47.170Z,45.47
2023-10-21T12:03:34.328Z,44.06
2023-10-21T12:06:08.729Z,45.42
2023-10-21T12:08:54.264Z,45.01
2023-10-21T12:11:28.458Z,45.35
2023-10-21T12:13:56.864Z,44.56
2023-10-21T12:16:31.079Z,44.89
2023-10-21T12:19:18.285Z,44.05
2023-10-21T12:22:02.121Z,44.12
2023-10-21T12:24:45.671Z,43.40
2023-10-21T12:27:32.612Z,44.26
2023-10-21T12:30:20.240Z,43.72
2023-10-21T12:32:54.394Z,42.24
2023-10-21T12:35:37.945Z,42.16
2023-10-21T12:38:06.751Z,41.95
2023-10-21T12:40:37.741Z,42.23
2023-10-21T12:43:18.573Z,41.97
2023-10-21T12:45:48.138Z,42.52
2023-10-21T12:48:19.553Z,42.63
2023-10-21T12:50:52.431Z,41.86
2023-10-21T12:53:20.902Z,41.59
2023-10-21T12:55:49.285Z,41.30
2023-10-21T12:58:17.544Z,41.82
2023-10-21T13:00:46.339Z,42.09
2023-10-21T13:03:14.827Z,41.98
2023-10-21T13:13:22.883Z,44.75
2023-10-21T13:15:51.307Z,45.68
2023-10-21T13:18:20.824Z,46.58
2023-10-21T13:20:50.605Z,46.60
2023-10-21T13:23:19.216Z,46.53
2023-10-21T13:25:47.861Z,46.69
2023-10-21T13:28:16.140Z,47.19
2023-10-21T13:30:45.793Z,47.65
2023-10-21T13:33:14.649Z,47.92
2023-10-21T13:35:43.129Z,48.14
2023-10-21T13:38:12.938Z,48.17
2023-10-21T13:40:41.194Z,47.50
2023-10-21T13:43:11.410Z,47.34
2023-10-21T13:45:39.778Z,46.82
2023-10-21T13:48:12.830Z,47.50
2023-10-21T13:50:42.543Z,46.87
2023-10-21T13:53:15.917Z,47.76
2023-10-21T13:55:47.880Z,47.57
2023-10-21T13:58:22.086Z,47.04
2023-10-21T14:00:52.186Z,47.19
2023-10-21T14:03:23.374Z,47.93
2023-10-21T14:05:53.921Z,48.38
2023-10-21T14:08:26.806Z,48.50
2023-10-21T14:10:57.927Z,48.14
2023-10-21T14:13:29.713Z,48.40
2023-10-21T14:16:06.378Z,47.71
2023-10-21T14:18:34.989Z,48.15
2023-10-21T14:21:03.474Z,48.00
2023-10-21T14:23:32.025Z,47.48
2023-10-21T14:26:01.012Z,47.24
2023-10-21T14:28:30.136Z,47.33
2023-10-21T14:31:00.667Z,47.15
2023-10-21T14:33:34.001Z,47.36
2023-10-21T14:36:07.619Z,47.78
2023-10-21T14:38:36.430Z,48.02
2023-10-21T14:41:04.820Z,48.42
2023-10-21T14:43:33.409Z,48.74
2023-10-21T14:46:01.983Z,48.41
2023-10-21T14:48:30.498Z,47.76
2023-10-21T14:50:58.864Z,48.44
2023-10-21T14:53:27.569Z,48.95
2023-10-21T14:55:55.930Z,49.51
2023-10-21T14:58:25.396Z,49.37
2023-10-21T15:00:54.707Z,49.75
2023-10-21T15:03:24.557Z,50.51
2023-10-21T15:05:54.460Z,51.12
2023-10-21T15:08:25.342Z,51.19
2023-10-21T15:10:54.494Z,51.43
2023-10-21T15:13:29.027Z,51.44
2023-10-21T15:16:01.503Z,51.75
2023-10-21T15:18:31.947Z,52.25
2023-10-21T15:21:08.283Z,52.17
2023-10-21T15:23:38.584Z,52.11
2023-10-21T15:26:18.006Z,52.20
2023-10-21T15:28:46.662Z,52.39
2023-10-21T15:31:14.946Z,52.41
2023-10-21T15:33:43.336Z,52.93
2023-10-21T15:36:13.441Z,53.32
2023-10-21T15:38:41.951Z,54.80
2023-10-21T15:41:17.824Z,56.45
2023-10-21T15:43:46.564Z,56.45
2023-10-21T15:46:14.859Z,56.71
2023-10-21T15:48:43.486Z,57.91
2023-10-21T15:51:13.901Z,58.91
2023-10-21T15:53:46.005Z,58.86
2023-10-21T15:56:17.127Z,59.85
2023-10-21T15:58:45.886Z,60.05
2023-10-21T16:01:14.193Z,60.87
2023-10-21T16:03:42.870Z,61.45
2023-10-21T16:06:15.101Z,61.99
2023-10-21T16:08:44.905Z,62.51
2023-10-21T16:11:13.225Z,63.55
2023-10-21T16:13:41.621Z,64.17
2023-10-21T16:16:10.629Z,64.53
2023-10-21T16:18:38.975Z,65.06
2023-10-21T16:21:07.482Z,65.36
2023-10-21T16:23:35.982Z,66.13
2023-10-21T16:26:04.349Z,66.53
2023-10-21T16:28:33.222Z,67.82
2023-10-21T16:31:05.601Z,67.39
2023-10-21T16:33:36.748Z,68.25
2023-10-21T16:36:06.345Z,67.86
2023-10-21T16:38:36.556Z,68.01
2023-10-21T16:41:05.469Z,68.03
2023-10-21T16:43:36.705Z,68.57
2023-10-21T16:46:06.176Z,69.20
2023-10-21T16:48:34.805Z,69.16
2023-10-21T16:51:03.060Z,69.81
2023-10-21T16:53:32.681Z,70.33
2023-10-21T16:56:01.073Z,70.29
2023-10-21T16:58:29.394Z,71.70
2023-10-21T17:01:00.710Z,71.48
2023-10-21T17:03:29.332Z,71.51
2023-10-21T17:06:01.984Z,72.48
2023-10-21T17:08:35.806Z,71.28
2023-10-21T17:11:05.222Z,71.24
2023-10-21T17:13:33.502Z,70.78
2023-10-21T17:16:02.644Z,71.00
2023-10-21T17:18:33.212Z,70.71
2023-10-21T17:21:03.623Z,69.59
2023-10-21T17:23:34.139Z,68.93
2023-10-21T17:26:02.699Z,68.36
2023-10-21T17:28:34.077Z,67.72
2023-10-21T17:31:02.454Z,66.87
2023-10-21T17:33:39.831Z,66.80
2023-10-21T17:36:19.648Z,67.24
2023-10-21T17:38:48.106Z,67.52
2023-10-21T17:41:16.352Z,67.63
2023-10-21T17:43:44.693Z,67.53
2023-10-21T17:46:13.240Z,67.63
2023-10-21T17:48:41.823Z,67.77
2023-10-21T17:51:10.288Z,67.79
2023-10-21T17:53:39.104Z,68.62
2023-10-21T17:56:07.558Z,68.80
2023-10-21T17:58:36.060Z,69.10
2023-10-21T18:01:05.818Z,69.67
2023-10-21T18:03:34.884Z,70.67
2023-10-21T18:06:03.662Z,72.29
2023-10-21T18:08:32.263Z,72.09
2023-10-21T18:11:00.715Z,72.41
2023-10-21T18:13:28.868Z,73.24
2023-10-21T18:15:58.591Z,72.88
2023-10-21T18:18:27.109Z,73.82
2023-10-21T18:20:55.466Z,74.80
2023-10-21T18:23:23.760Z,74.83
2023-10-21T18:26:03.365Z,75.84
2023-10-21T18:28:32.453Z,77.30
2023-10-21T18:31:02.249Z,77.47
2023-10-21T18:33:31.444Z,76.39
2023-10-21T18:35:59.857Z,75.50
2023-10-21T18:38:28.360Z,74.98
2023-10-21T18:40:57.001Z,75.07
2023-10-21T18:43:25.157Z,76.42
2023-10-21T18:45:58.053Z,76.05
2023-10-21T18:48:26.394Z,75.04
2023-10-21T18:51:01.649Z,74.69
2023-10-21T18:53:29.749Z,74.86
2023-10-21T18:55:58.099Z,74.52
2023-10-21T18:58:26.562Z,75.17
2023-10-21T19:00:59.080Z,74.95
2023-10-21T19:03:27.989Z,75.06
2023-10-21T19:05:56.351Z,75.07
2023-10-21T19:08:25.450Z,75.22
2023-10-21T19:10:54.035Z,75.54
2023-10-21T19:13:25.324Z,75.88
2023-10-21T19:15:53.594Z,77.03
2023-10-21T19:18:22.432Z,77.34
2023-10-21T19:20:50.619Z,76.76
2023-10-21T19:23:18.969Z,76.72
2023-10-21T19:25:49.900Z,76.58
2023-10-21T19:28:19.571Z,77.15
2023-10-21T19:30:48.094Z,76.88
2023-10-21T19:33:16.529Z,77.01
2023-10-21T19:35:54.667Z,78.01
2023-10-21T19:38:23.748Z,78.12
2023-10-21T19:40:54.294Z,79.02
2023-10-21T19:43:24.708Z,80.17
2023-10-21T19:45:52.968Z,79.52
2023-10-21T19:48:21.343Z,79.35
2023-10-21T19:50:49.610Z,78.56
2023-10-21T19:53:18.256Z,80.30
2023-10-21T19:56:00.005Z,80.02
2023-10-21T19:58:28.756Z,80.44
2023-10-21T20:01:07.818Z,80.13
2023-10-21T20:03:37.323Z,79.54
2023-10-21T20:06:06.713Z,79.09
2023-10-21T20:08:35.501Z,77.23
2023-10-21T20:11:09.027Z,76.24
2023-10-21T20:13:37.408Z,76.49
2023-10-21T20:16:10.818Z,75.18
2023-10-21T20:18:41.039Z,74.77
2023-10-21T20:21:09.447Z,74.62
2023-10-21T20:23:42.090Z,73.98
2023-10-21T20:26:16.167Z,74.06
2023-10-21T20:28:44.973Z,73.86
2023-10-21T20:31:13.825Z,74.03
2023-10-21T20:33:43.598Z,74.94
2023-10-21T20:36:12.166Z,74.72
2023-10-21T20:38:40.422Z,75.02
2023-10-21T20:41:10.011Z,74.79
2023-10-21T20:43:39.538Z,75.10
2023-10-21T20:46:09.164Z,75.03
2023-10-21T20:48:40.234Z,75.11
2023-10-21T20:51:18.693Z,75.52
2023-10-21T20:53:46.981Z,76.86
2023-10-21T20:56:20.292Z,78.65
2023-10-21T20:58:49.177Z,78.20
2023-10-21T21:01:30.322Z,78.18
2023-10-21T21:04:05.685Z,79.19
2023-10-21T21:06:34.318Z,81.18
2023-10-21T21:09:06.973Z,81.35
2023-10-21T21:11:35.461Z,80.79
2023-10-21T21:14:04.258Z,81.44
2023-10-21T21:16:36.277Z,80.66
2023-10-21T21:19:06.316Z,80.06
2023-10-21T21:21:35.263Z,79.49
2023-10-21T21:24:06.778Z,79.17
2023-10-21T21:26:36.093Z,78.85
2023-10-21T21:29:05.676Z,78.43
2023-10-21T21:31:34.189Z,78.27
2023-10-21T21:34:02.564Z,78.07
2023-10-21T21:36:33.156Z,77.89
2023-10-21T21:39:01.892Z,77.73
2023-10-21T21:41:30.262Z,77.55
2023-10-21T21:43:58.467Z,77.12
2023-10-21T21:46:26.972Z,76.63
2023-10-21T21:48:55.534Z,76.56
2023-10-21T21:51:24.112Z,76.28
2023-10-21T21:53:52.585Z,76.09
2023-10-21T21:56:20.674Z,75.99
2023-10-21T21:58:49.370Z,76.03
2023-10-21T22:01:27.788Z,76.90
2023-10-21T22:03:57.822Z,76.21
2023-10-21T22:06:27.024Z,76.04
2023-10-21T22:08:55.865Z,75.76
2023-10-21T22:11:26.401Z,75.45
2023-10-21T22:13:54.970Z,75.36
2023-10-21T22:16:24.053Z,74.92
2023-10-21T22:18:52.578Z,74.75
2023-10-21T22:21:21.357Z,74.84
2023-10-21T22:24:01.127Z,74.76
2023-10-21T22:26:31.402Z,74.72
2023-10-21T22:29:02.665Z,74.71
2023-10-21T22:31:31.505Z,74.74
2023-10-21T22:34:00.172Z,74.74
2023-10-21T22:36:28.430Z,74.45
2023-10-21T22:38:57.575Z,74.64
2023-10-21T22:41:26.843Z,74.61
2023-10-21T22:43:55.138Z,74.61
2023-10-21T22:46:23.822Z,74.69
2023-10-21T22:48:52.694Z,74.54
2023-10-21T22:51:20.820Z,74.22
2023-10-21T22:53:48.987Z,73.93
2023-10-21T22:56:17.445Z,73.81
2023-10-21T22:58:45.929Z,73.79
2023-10-21T23:01:15.007Z,73.93
2023-10-21T23:03:43.582Z,74.05
2023-10-21T23:06:12.761Z,74.50
2023-10-21T23:08:41.227Z,76.75
2023-10-21T23:11:10.472Z,77.67
2023-10-21T23:13:39.145Z,77.81
2023-10-21T23:16:07.718Z,77.56
2023-10-21T23:18:39.134Z,77.73
2023-10-21T23:21:07.969Z,77.98
2023-10-21T23:23:36.421Z,79.57
2023-10-21T23:26:04.949Z,81.60
2023-10-21T23:28:33.437Z,82.37
2023-10-21T23:31:03.115Z,82.98
2023-10-21T23:33:31.581Z,82.29
2023-10-21T23:36:04.900Z,82.47
2023-10-21T23:38:34.521Z,83.39
2023-10-21T23:41:09.117Z,84.75
2023-10-21T23:43:37.498Z,85.03
2023-10-21T23:46:09.737Z,84.61
2023-10-21T23:48:39.007Z,86.08
2023-10-21T23:51:07.670Z,87.63
2023-10-21T23:53:36.407Z,85.19
2023-10-21T23:56:04.876Z,84.36
2023-10-21T23:58:33.012Z,83.80
